sensor_id;sensor_type;location;lat;lon;timestamp;P1;durP1;ratioP1;P2;durP2;ratioP2
82835;SDS011;72587;50.746;8.246;2024-01-30T00:02:16;40.00;;;16.63;;
82835;SDS011;72587;50.746;8.246;2024-01-30T00:04:42;36.07;;;15.97;;
82835;SDS011;72587;50.746;8.246;2024-01-30T00:07:08;33.37;;;15.87;;
82835;SDS011;72587;50.746;8.246;2024-01-30T00:09:34;39.93;;;17.27;;
82835;SDS011;72587;50.746;8.246;2024-01-30T00:12:00;36.60;;;16.70;;
82835;SDS011;72587;50.746;8.246;2024-01-30T00:14:26;41.33;;;16.93;;
82835;SDS011;72587;50.746;8.246;2024-01-30T00:16:52;34.97;;;16.33;;
82835;SDS011;72587;50.746;8.246;2024-01-30T00:19:17;32.33;;;16.10;;
82835;SDS011;72587;50.746;8.246;2024-01-30T00:21:43;38.67;;;16.37;;
82835;SDS011;72587;50.746;8.246;2024-01-30T00:24:09;36.10;;;15.33;;
82835;SDS011;72587;50.746;8.246;2024-01-30T00:26:35;32.30;;;16.07;;
82835;SDS011;72587;50.746;8.246;2024-01-30T00:29:01;31.97;;;15.07;;
82835;SDS011;72587;50.746;8.246;2024-01-30T00:31:27;32.90;;;15.07;;
82835;SDS011;72587;50.746;8.246;2024-01-30T00:33:54;35.67;;;15.37;;
82835;SDS011;72587;50.746;8.246;2024-01-30T00:36:20;32.47;;;14.87;;
82835;SDS011;72587;50.746;8.246;2024-01-30T00:38:46;33.03;;;16.10;;
82835;SDS011;72587;50.746;8.246;2024-01-30T00:41:12;29.20;;;14.10;;
82835;SDS011;72587;50.746;8.246;2024-01-30T00:43:38;31.80;;;14.60;;
82835;SDS011;72587;50.746;8.246;2024-01-30T00:46:04;29.37;;;13.73;;
82835;SDS011;72587;50.746;8.246;2024-01-30T00:48:30;31.73;;;13.53;;
82835;SDS011;72587;50.746;8.246;2024-01-30T00:50:56;28.00;;;14.30;;
82835;SDS011;72587;50.746;8.246;2024-01-30T00:53:22;36.07;;;16.00;;
82835;SDS011;72587;50.746;8.246;2024-01-30T00:55:48;34.53;;;15.90;;
82835;SDS011;72587;50.746;8.246;2024-01-30T00:58:14;33.10;;;15.20;;
82835;SDS011;72587;50.746;8.246;2024-01-30T01:00:40;38.37;;;15.30;;
82835;SDS011;72587;50.746;8.246;2024-01-30T01:03:06;33.40;;;15.23;;
82835;SDS011;72587;50.746;8.246;2024-01-30T01:05:32;33.00;;;15.30;;
82835;SDS011;72587;50.746;8.246;2024-01-30T01:07:58;38.17;;;16.97;;
82835;SDS011;72587;50.746;8.246;2024-01-30T01:10:24;34.70;;;15.87;;
82835;SDS011;72587;50.746;8.246;2024-01-30T01:12:50;36.77;;;16.60;;
82835;SDS011;72587;50.746;8.246;2024-01-30T01:15:16;39.27;;;17.03;;
82835;SDS011;72587;50.746;8.246;2024-01-30T01:17:42;35.97;;;15.73;;
82835;SDS011;72587;50.746;8.246;2024-01-30T01:20:08;31.83;;;14.90;;
82835;SDS011;72587;50.746;8.246;2024-01-30T01:22:35;32.80;;;14.73;;
82835;SDS011;72587;50.746;8.246;2024-01-30T01:25:03;35.50;;;14.57;;
82835;SDS011;72587;50.746;8.246;2024-01-30T01:27:32;38.90;;;15.00;;
82835;SDS011;72587;50.746;8.246;2024-01-30T01:29:59;35.23;;;15.73;;
82835;SDS011;72587;50.746;8.246;2024-01-30T01:32:25;33.03;;;14.87;;
82835;SDS011;72587;50.746;8.246;2024-01-30T01:34:51;35.70;;;14.87;;
82835;SDS011;72587;50.746;8.246;2024-01-30T01:37:17;30.73;;;14.53;;
82835;SDS011;72587;50.746;8.246;2024-01-30T01:39:43;28.57;;;15.00;;
82835;SDS011;72587;50.746;8.246;2024-01-30T01:42:09;32.90;;;15.57;;
82835;SDS011;72587;50.746;8.246;2024-01-30T01:44:35;37.33;;;16.37;;
82835;SDS011;72587;50.746;8.246;2024-01-30T01:47:01;32.63;;;16.07;;
82835;SDS011;72587;50.746;8.246;2024-01-30T01:49:27;36.17;;;15.13;;
82835;SDS011;72587;50.746;8.246;2024-01-30T01:51:53;33.30;;;15.40;;
82835;SDS011;72587;50.746;8.246;2024-01-30T01:54:20;34.50;;;15.53;;
82835;SDS011;72587;50.746;8.246;2024-01-30T01:56:47;37.57;;;14.40;;
82835;SDS011;72587;50.746;8.246;2024-01-30T01:59:13;29.47;;;13.70;;
82835;SDS011;72587;50.746;8.246;2024-01-30T02:01:39;29.97;;;14.17;;
82835;SDS011;72587;50.746;8.246;2024-01-30T02:04:06;31.60;;;14.23;;
82835;SDS011;72587;50.746;8.246;2024-01-30T02:06:34;36.13;;;14.60;;
82835;SDS011;72587;50.746;8.246;2024-01-30T02:09:00;36.20;;;15.23;;
82835;SDS011;72587;50.746;8.246;2024-01-30T02:11:26;36.63;;;15.67;;
82835;SDS011;72587;50.746;8.246;2024-01-30T02:13:53;36.57;;;15.67;;
82835;SDS011;72587;50.746;8.246;2024-01-30T02:16:19;32.00;;;15.23;;
82835;SDS011;72587;50.746;8.246;2024-01-30T02:18:45;31.57;;;13.40;;
82835;SDS011;72587;50.746;8.246;2024-01-30T02:21:14;34.07;;;15.10;;
82835;SDS011;72587;50.746;8.246;2024-01-30T02:23:40;32.00;;;14.37;;
82835;SDS011;72587;50.746;8.246;2024-01-30T02:26:06;35.13;;;14.70;;
82835;SDS011;72587;50.746;8.246;2024-01-30T02:28:32;35.20;;;14.70;;
82835;SDS011;72587;50.746;8.246;2024-01-30T02:30:58;31.90;;;14.57;;
82835;SDS011;72587;50.746;8.246;2024-01-30T02:33:24;30.50;;;14.03;;
82835;SDS011;72587;50.746;8.246;2024-01-30T02:35:50;31.60;;;13.97;;
82835;SDS011;72587;50.746;8.246;2024-01-30T02:38:16;31.97;;;14.43;;
82835;SDS011;72587;50.746;8.246;2024-01-30T02:40:42;38.40;;;15.13;;
82835;SDS011;72587;50.746;8.246;2024-01-30T02:43:08;35.53;;;14.90;;
82835;SDS011;72587;50.746;8.246;2024-01-30T02:45:34;30.47;;;14.73;;
82835;SDS011;72587;50.746;8.246;2024-01-30T02:48:00;32.73;;;13.90;;
82835;SDS011;72587;50.746;8.246;2024-01-30T02:50:26;33.63;;;15.13;;
82835;SDS011;72587;50.746;8.246;2024-01-30T02:52:52;39.93;;;15.87;;
82835;SDS011;72587;50.746;8.246;2024-01-30T02:55:18;30.03;;;14.50;;
82835;SDS011;72587;50.746;8.246;2024-01-30T02:57:44;35.33;;;13.80;;
82835;SDS011;72587;50.746;8.246;2024-01-30T03:00:10;29.93;;;13.80;;
82835;SDS011;72587;50.746;8.246;2024-01-30T03:02:36;36.13;;;14.57;;
82835;SDS011;72587;50.746;8.246;2024-01-30T03:05:02;32.53;;;14.97;;
82835;SDS011;72587;50.746;8.246;2024-01-30T03:07:29;28.27;;;13.20;;
82835;SDS011;72587;50.746;8.246;2024-01-30T03:09:55;34.00;;;14.57;;
82835;SDS011;72587;50.746;8.246;2024-01-30T03:12:21;29.43;;;14.37;;
82835;SDS011;72587;50.746;8.246;2024-01-30T03:14:48;31.37;;;13.10;;
82835;SDS011;72587;50.746;8.246;2024-01-30T03:17:14;32.23;;;13.93;;
82835;SDS011;72587;50.746;8.246;2024-01-30T03:19:40;32.03;;;14.30;;
82835;SDS011;72587;50.746;8.246;2024-01-30T03:22:06;30.63;;;14.10;;
82835;SDS011;72587;50.746;8.246;2024-01-30T03:24:32;34.20;;;14.50;;
82835;SDS011;72587;50.746;8.246;2024-01-30T03:26:58;32.67;;;14.97;;
82835;SDS011;72587;50.746;8.246;2024-01-30T03:29:24;32.80;;;14.50;;
82835;SDS011;72587;50.746;8.246;2024-01-30T03:31:50;30.53;;;14.07;;
82835;SDS011;72587;50.746;8.246;2024-01-30T03:34:16;37.00;;;15.27;;
82835;SDS011;72587;50.746;8.246;2024-01-30T03:36:42;33.97;;;14.43;;
82835;SDS011;72587;50.746;8.246;2024-01-30T03:39:08;33.00;;;15.63;;
82835;SDS011;72587;50.746;8.246;2024-01-30T03:41:34;41.80;;;16.10;;
82835;SDS011;72587;50.746;8.246;2024-01-30T03:44:01;43.53;;;15.60;;
82835;SDS011;72587;50.746;8.246;2024-01-30T03:46:27;37.83;;;16.10;;
82835;SDS011;72587;50.746;8.246;2024-01-30T03:48:53;34.30;;;14.97;;
82835;SDS011;72587;50.746;8.246;2024-01-30T03:51:19;40.23;;;15.47;;
82835;SDS011;72587;50.746;8.246;2024-01-30T03:53:45;34.43;;;15.40;;
82835;SDS011;72587;50.746;8.246;2024-01-30T03:56:11;37.17;;;15.77;;
82835;SDS011;72587;50.746;8.246;2024-01-30T03:58:38;33.37;;;15.20;;
82835;SDS011;72587;50.746;8.246;2024-01-30T04:01:04;34.60;;;15.30;;
82835;SDS011;72587;50.746;8.246;2024-01-30T04:03:30;35.57;;;15.97;;
82835;SDS011;72587;50.746;8.246;2024-01-30T04:05:56;36.30;;;16.03;;
82835;SDS011;72587;50.746;8.246;2024-01-30T04:08:22;48.47;;;17.37;;
82835;SDS011;72587;50.746;8.246;2024-01-30T04:10:48;38.77;;;16.23;;
82835;SDS011;72587;50.746;8.246;2024-01-30T04:13:14;48.20;;;16.37;;
82835;SDS011;72587;50.746;8.246;2024-01-30T04:15:40;34.50;;;15.53;;
82835;SDS011;72587;50.746;8.246;2024-01-30T04:18:06;39.67;;;15.97;;
82835;SDS011;72587;50.746;8.246;2024-01-30T04:20:32;39.40;;;15.43;;
82835;SDS011;72587;50.746;8.246;2024-01-30T04:22:58;33.40;;;14.93;;
82835;SDS011;72587;50.746;8.246;2024-01-30T04:25:24;39.87;;;15.70;;
82835;SDS011;72587;50.746;8.246;2024-01-30T04:27:50;37.53;;;15.70;;
82835;SDS011;72587;50.746;8.246;2024-01-30T04:30:16;32.27;;;14.90;;
82835;SDS011;72587;50.746;8.246;2024-01-30T04:32:42;32.50;;;15.10;;
82835;SDS011;72587;50.746;8.246;2024-01-30T04:35:08;32.03;;;14.67;;
82835;SDS011;72587;50.746;8.246;2024-01-30T04:37:34;31.43;;;13.90;;
82835;SDS011;72587;50.746;8.246;2024-01-30T04:40:00;30.13;;;14.10;;
82835;SDS011;72587;50.746;8.246;2024-01-30T04:42:27;36.87;;;15.00;;
82835;SDS011;72587;50.746;8.246;2024-01-30T04:44:53;37.10;;;14.97;;
82835;SDS011;72587;50.746;8.246;2024-01-30T04:47:19;35.77;;;14.90;;
82835;SDS011;72587;50.746;8.246;2024-01-30T04:49:46;37.40;;;15.20;;
82835;SDS011;72587;50.746;8.246;2024-01-30T04:52:12;33.60;;;13.83;;
82835;SDS011;72587;50.746;8.246;2024-01-30T04:54:38;34.43;;;14.83;;
82835;SDS011;72587;50.746;8.246;2024-01-30T04:57:04;33.57;;;14.50;;
82835;SDS011;72587;50.746;8.246;2024-01-30T04:59:34;34.63;;;14.07;;
82835;SDS011;72587;50.746;8.246;2024-01-30T05:02:00;38.20;;;14.33;;
82835;SDS011;72587;50.746;8.246;2024-01-30T05:04:26;43.27;;;15.50;;
82835;SDS011;72587;50.746;8.246;2024-01-30T05:06:52;36.37;;;13.90;;
82835;SDS011;72587;50.746;8.246;2024-01-30T05:09:18;37.33;;;15.17;;
82835;SDS011;72587;50.746;8.246;2024-01-30T05:11:44;35.67;;;15.63;;
82835;SDS011;72587;50.746;8.246;2024-01-30T05:14:10;35.57;;;14.60;;
82835;SDS011;72587;50.746;8.246;2024-01-30T05:16:37;39.40;;;14.20;;
82835;SDS011;72587;50.746;8.246;2024-01-30T05:19:03;34.43;;;15.30;;
82835;SDS011;72587;50.746;8.246;2024-01-30T05:21:29;35.60;;;14.73;;
82835;SDS011;72587;50.746;8.246;2024-01-30T05:23:55;42.10;;;14.77;;
82835;SDS011;72587;50.746;8.246;2024-01-30T05:26:21;43.73;;;15.20;;
82835;SDS011;72587;50.746;8.246;2024-01-30T05:28:48;34.33;;;13.13;;
82835;SDS011;72587;50.746;8.246;2024-01-30T05:31:14;36.17;;;14.30;;
82835;SDS011;72587;50.746;8.246;2024-01-30T05:33:40;42.87;;;16.77;;
82835;SDS011;72587;50.746;8.246;2024-01-30T05:36:06;33.20;;;14.40;;
82835;SDS011;72587;50.746;8.246;2024-01-30T05:38:32;33.20;;;14.47;;
82835;SDS011;72587;50.746;8.246;2024-01-30T05:40:58;35.37;;;14.33;;
82835;SDS011;72587;50.746;8.246;2024-01-30T05:43:24;38.73;;;16.13;;
82835;SDS011;72587;50.746;8.246;2024-01-30T05:45:51;35.83;;;14.67;;
82835;SDS011;72587;50.746;8.246;2024-01-30T05:48:17;40.27;;;15.27;;
82835;SDS011;72587;50.746;8.246;2024-01-30T05:50:43;37.07;;;14.70;;
82835;SDS011;72587;50.746;8.246;2024-01-30T05:53:10;33.53;;;13.67;;
82835;SDS011;72587;50.746;8.246;2024-01-30T05:55:36;30.93;;;13.33;;
82835;SDS011;72587;50.746;8.246;2024-01-30T05:58:02;37.03;;;15.23;;
82835;SDS011;72587;50.746;8.246;2024-01-30T06:00:28;33.67;;;13.40;;
82835;SDS011;72587;50.746;8.246;2024-01-30T06:02:54;39.80;;;14.47;;
82835;SDS011;72587;50.746;8.246;2024-01-30T06:05:20;37.00;;;14.60;;
82835;SDS011;72587;50.746;8.246;2024-01-30T06:07:46;37.90;;;15.23;;
82835;SDS011;72587;50.746;8.246;2024-01-30T06:10:12;35.70;;;14.00;;
82835;SDS011;72587;50.746;8.246;2024-01-30T06:12:39;38.03;;;14.40;;
82835;SDS011;72587;50.746;8.246;2024-01-30T06:15:05;38.10;;;15.13;;
82835;SDS011;72587;50.746;8.246;2024-01-30T06:17:31;33.83;;;13.77;;
82835;SDS011;72587;50.746;8.246;2024-01-30T06:19:57;38.13;;;15.00;;
82835;SDS011;72587;50.746;8.246;2024-01-30T06:22:24;37.63;;;13.87;;
82835;SDS011;72587;50.746;8.246;2024-01-30T06:24:50;41.27;;;16.20;;
82835;SDS011;72587;50.746;8.246;2024-01-30T06:27:16;38.60;;;16.10;;
82835;SDS011;72587;50.746;8.246;2024-01-30T06:29:45;42.13;;;15.07;;
82835;SDS011;72587;50.746;8.246;2024-01-30T06:32:11;43.67;;;15.60;;
82835;SDS011;72587;50.746;8.246;2024-01-30T06:34:37;48.53;;;16.77;;
82835;SDS011;72587;50.746;8.246;2024-01-30T06:37:05;39.07;;;15.93;;
82835;SDS011;72587;50.746;8.246;2024-01-30T06:39:31;42.17;;;15.70;;
82835;SDS011;72587;50.746;8.246;2024-01-30T06:41:57;48.73;;;16.00;;
82835;SDS011;72587;50.746;8.246;2024-01-30T06:44:23;44.90;;;16.40;;
82835;SDS011;72587;50.746;8.246;2024-01-30T06:46:49;45.27;;;15.40;;
82835;SDS011;72587;50.746;8.246;2024-01-30T06:49:15;43.13;;;16.17;;
82835;SDS011;72587;50.746;8.246;2024-01-30T06:51:41;46.20;;;17.37;;
82835;SDS011;72587;50.746;8.246;2024-01-30T06:54:07;39.90;;;16.20;;
82835;SDS011;72587;50.746;8.246;2024-01-30T06:56:33;44.90;;;17.43;;
82835;SDS011;72587;50.746;8.246;2024-01-30T06:58:59;41.97;;;15.47;;
82835;SDS011;72587;50.746;8.246;2024-01-30T07:01:28;44.57;;;17.17;;
82835;SDS011;72587;50.746;8.246;2024-01-30T07:03:55;43.80;;;16.30;;
82835;SDS011;72587;50.746;8.246;2024-01-30T07:06:21;52.67;;;17.70;;
82835;SDS011;72587;50.746;8.246;2024-01-30T07:08:48;44.73;;;17.47;;
82835;SDS011;72587;50.746;8.246;2024-01-30T07:11:21;41.50;;;16.37;;
82835;SDS011;72587;50.746;8.246;2024-01-30T07:13:48;40.20;;;16.50;;
82835;SDS011;72587;50.746;8.246;2024-01-30T07:16:15;55.93;;;16.97;;
82835;SDS011;72587;50.746;8.246;2024-01-30T07:18:41;49.83;;;17.73;;
82835;SDS011;72587;50.746;8.246;2024-01-30T07:21:07;40.57;;;16.13;;
82835;SDS011;72587;50.746;8.246;2024-01-30T07:23:33;39.63;;;16.40;;
82835;SDS011;72587;50.746;8.246;2024-01-30T07:25:59;39.37;;;16.90;;
82835;SDS011;72587;50.746;8.246;2024-01-30T07:28:25;61.23;;;19.03;;
82835;SDS011;72587;50.746;8.246;2024-01-30T07:30:51;48.67;;;19.07;;
82835;SDS011;72587;50.746;8.246;2024-01-30T07:33:17;47.33;;;19.77;;
82835;SDS011;72587;50.746;8.246;2024-01-30T07:35:44;51.60;;;18.83;;
82835;SDS011;72587;50.746;8.246;2024-01-30T07:38:10;46.20;;;17.57;;
82835;SDS011;72587;50.746;8.246;2024-01-30T07:40:36;44.00;;;17.97;;
82835;SDS011;72587;50.746;8.246;2024-01-30T07:43:03;44.73;;;17.83;;
82835;SDS011;72587;50.746;8.246;2024-01-30T07:45:29;41.97;;;16.53;;
82835;SDS011;72587;50.746;8.246;2024-01-30T07:47:58;41.10;;;16.50;;
82835;SDS011;72587;50.746;8.246;2024-01-30T07:50:24;34.40;;;15.57;;
82835;SDS011;72587;50.746;8.246;2024-01-30T07:52:50;43.07;;;18.03;;
82835;SDS011;72587;50.746;8.246;2024-01-30T07:55:19;39.50;;;16.50;;
82835;SDS011;72587;50.746;8.246;2024-01-30T07:57:46;42.63;;;17.77;;
82835;SDS011;72587;50.746;8.246;2024-01-30T08:00:13;45.77;;;16.37;;
82835;SDS011;72587;50.746;8.246;2024-01-30T08:02:39;43.37;;;17.40;;
82835;SDS011;72587;50.746;8.246;2024-01-30T08:05:05;39.97;;;17.00;;
82835;SDS011;72587;50.746;8.246;2024-01-30T08:07:31;39.77;;;17.00;;
82835;SDS011;72587;50.746;8.246;2024-01-30T08:09:57;43.23;;;18.27;;
82835;SDS011;72587;50.746;8.246;2024-01-30T08:12:23;43.40;;;19.17;;
82835;SDS011;72587;50.746;8.246;2024-01-30T08:14:49;45.53;;;19.03;;
82835;SDS011;72587;50.746;8.246;2024-01-30T08:17:15;44.77;;;17.67;;
82835;SDS011;72587;50.746;8.246;2024-01-30T08:19:41;40.60;;;17.63;;
82835;SDS011;72587;50.746;8.246;2024-01-30T08:22:07;50.77;;;19.97;;
82835;SDS011;72587;50.746;8.246;2024-01-30T08:24:33;52.13;;;17.93;;
82835;SDS011;72587;50.746;8.246;2024-01-30T08:26:59;44.33;;;19.00;;
82835;SDS011;72587;50.746;8.246;2024-01-30T08:29:27;54.50;;;19.97;;
82835;SDS011;72587;50.746;8.246;2024-01-30T08:31:53;60.63;;;20.10;;
82835;SDS011;72587;50.746;8.246;2024-01-30T08:34:20;60.73;;;24.20;;
82835;SDS011;72587;50.746;8.246;2024-01-30T08:36:46;43.80;;;18.90;;
82835;SDS011;72587;50.746;8.246;2024-01-30T08:39:13;49.43;;;17.93;;
82835;SDS011;72587;50.746;8.246;2024-01-30T08:41:39;44.53;;;17.03;;
82835;SDS011;72587;50.746;8.246;2024-01-30T08:44:05;68.00;;;20.90;;
82835;SDS011;72587;50.746;8.246;2024-01-30T08:46:31;43.13;;;17.83;;
82835;SDS011;72587;50.746;8.246;2024-01-30T08:48:57;45.57;;;19.13;;
82835;SDS011;72587;50.746;8.246;2024-01-30T08:51:23;49.47;;;18.40;;
82835;SDS011;72587;50.746;8.246;2024-01-30T08:53:49;42.57;;;18.43;;
82835;SDS011;72587;50.746;8.246;2024-01-30T08:56:15;43.70;;;18.03;;
82835;SDS011;72587;50.746;8.246;2024-01-30T08:58:41;38.07;;;17.43;;
82835;SDS011;72587;50.746;8.246;2024-01-30T09:01:07;49.57;;;20.40;;
82835;SDS011;72587;50.746;8.246;2024-01-30T09:03:33;47.20;;;19.53;;
82835;SDS011;72587;50.746;8.246;2024-01-30T09:05:59;43.13;;;19.13;;
82835;SDS011;72587;50.746;8.246;2024-01-30T09:08:25;47.30;;;18.47;;
82835;SDS011;72587;50.746;8.246;2024-01-30T09:10:51;41.87;;;16.97;;
82835;SDS011;72587;50.746;8.246;2024-01-30T09:13:17;37.50;;;16.70;;
82835;SDS011;72587;50.746;8.246;2024-01-30T09:15:43;38.77;;;16.73;;
82835;SDS011;72587;50.746;8.246;2024-01-30T09:18:09;38.47;;;16.93;;
82835;SDS011;72587;50.746;8.246;2024-01-30T09:20:35;35.27;;;16.30;;
82835;SDS011;72587;50.746;8.246;2024-01-30T09:23:01;39.77;;;15.93;;
82835;SDS011;72587;50.746;8.246;2024-01-30T09:25:27;35.43;;;16.60;;
82835;SDS011;72587;50.746;8.246;2024-01-30T09:27:53;32.73;;;15.43;;
82835;SDS011;72587;50.746;8.246;2024-01-30T09:30:19;34.77;;;15.27;;
82835;SDS011;72587;50.746;8.246;2024-01-30T09:32:45;38.23;;;17.40;;
82835;SDS011;72587;50.746;8.246;2024-01-30T09:35:11;35.70;;;16.87;;
82835;SDS011;72587;50.746;8.246;2024-01-30T09:37:37;36.93;;;16.37;;
82835;SDS011;72587;50.746;8.246;2024-01-30T09:40:03;36.70;;;16.47;;
82835;SDS011;72587;50.746;8.246;2024-01-30T09:42:33;33.07;;;15.67;;
82835;SDS011;72587;50.746;8.246;2024-01-30T09:45:02;31.73;;;14.90;;
82835;SDS011;72587;50.746;8.246;2024-01-30T09:47:32;38.87;;;17.17;;
82835;SDS011;72587;50.746;8.246;2024-01-30T09:50:02;35.20;;;17.67;;
82835;SDS011;72587;50.746;8.246;2024-01-30T09:52:29;36.03;;;16.40;;
82835;SDS011;72587;50.746;8.246;2024-01-30T09:54:55;36.90;;;17.23;;
82835;SDS011;72587;50.746;8.246;2024-01-30T09:57:21;40.93;;;19.33;;
82835;SDS011;72587;50.746;8.246;2024-01-30T09:59:47;40.83;;;18.17;;
82835;SDS011;72587;50.746;8.246;2024-01-30T10:02:13;36.10;;;17.93;;
82835;SDS011;72587;50.746;8.246;2024-01-30T10:04:40;38.63;;;18.53;;
82835;SDS011;72587;50.746;8.246;2024-01-30T10:07:05;43.73;;;18.63;;
82835;SDS011;72587;50.746;8.246;2024-01-30T10:09:32;34.43;;;17.43;;
82835;SDS011;72587;50.746;8.246;2024-01-30T10:11:59;38.33;;;17.77;;
82835;SDS011;72587;50.746;8.246;2024-01-30T10:14:25;40.93;;;19.87;;
82835;SDS011;72587;50.746;8.246;2024-01-30T10:16:51;43.80;;;19.57;;
82835;SDS011;72587;50.746;8.246;2024-01-30T10:19:17;39.63;;;18.27;;
82835;SDS011;72587;50.746;8.246;2024-01-30T10:21:43;39.60;;;19.07;;
82835;SDS011;72587;50.746;8.246;2024-01-30T10:24:09;42.73;;;19.53;;
82835;SDS011;72587;50.746;8.246;2024-01-30T10:26:38;43.10;;;19.53;;
82835;SDS011;72587;50.746;8.246;2024-01-30T10:29:04;39.47;;;19.47;;
82835;SDS011;72587;50.746;8.246;2024-01-30T10:31:30;39.63;;;19.33;;
82835;SDS011;72587;50.746;8.246;2024-01-30T10:33:56;37.03;;;17.50;;
82835;SDS011;72587;50.746;8.246;2024-01-30T10:36:24;36.80;;;18.27;;
82835;SDS011;72587;50.746;8.246;2024-01-30T10:38:52;39.23;;;18.27;;
82835;SDS011;72587;50.746;8.246;2024-01-30T10:41:23;38.23;;;18.40;;
82835;SDS011;72587;50.746;8.246;2024-01-30T10:43:56;38.23;;;17.80;;
82835;SDS011;72587;50.746;8.246;2024-01-30T10:46:24;37.40;;;17.63;;
82835;SDS011;72587;50.746;8.246;2024-01-30T10:48:57;36.27;;;17.03;;
82835;SDS011;72587;50.746;8.246;2024-01-30T10:51:26;34.53;;;17.33;;
82835;SDS011;72587;50.746;8.246;2024-01-30T10:53:53;33.97;;;17.57;;
82835;SDS011;72587;50.746;8.246;2024-01-30T10:56:22;34.67;;;16.90;;
82835;SDS011;72587;50.746;8.246;2024-01-30T10:58:51;35.40;;;17.37;;
82835;SDS011;72587;50.746;8.246;2024-01-30T11:01:21;38.10;;;18.13;;
82835;SDS011;72587;50.746;8.246;2024-01-30T11:03:51;36.00;;;19.47;;
82835;SDS011;72587;50.746;8.246;2024-01-30T11:06:17;31.13;;;16.03;;
82835;SDS011;72587;50.746;8.246;2024-01-30T11:08:46;40.57;;;19.83;;
82835;SDS011;72587;50.746;8.246;2024-01-30T11:11:12;40.30;;;19.30;;
82835;SDS011;72587;50.746;8.246;2024-01-30T11:13:38;39.43;;;18.23;;
82835;SDS011;72587;50.746;8.246;2024-01-30T11:16:06;38.17;;;18.93;;
82835;SDS011;72587;50.746;8.246;2024-01-30T11:18:32;39.30;;;17.67;;
82835;SDS011;72587;50.746;8.246;2024-01-30T11:20:59;37.77;;;17.00;;
82835;SDS011;72587;50.746;8.246;2024-01-30T11:23:29;37.70;;;17.90;;
82835;SDS011;72587;50.746;8.246;2024-01-30T11:25:55;33.57;;;17.20;;
82835;SDS011;72587;50.746;8.246;2024-01-30T11:28:21;35.87;;;18.23;;
82835;SDS011;72587;50.746;8.246;2024-01-30T11:30:48;37.20;;;18.87;;
82835;SDS011;72587;50.746;8.246;2024-01-30T11:33:15;42.47;;;19.83;;
82835;SDS011;72587;50.746;8.246;2024-01-30T11:35:42;37.57;;;19.43;;
82835;SDS011;72587;50.746;8.246;2024-01-30T11:38:09;37.73;;;17.67;;
82835;SDS011;72587;50.746;8.246;2024-01-30T11:40:36;38.00;;;18.53;;
82835;SDS011;72587;50.746;8.246;2024-01-30T11:43:03;34.93;;;17.30;;
82835;SDS011;72587;50.746;8.246;2024-01-30T11:45:30;30.20;;;16.97;;
82835;SDS011;72587;50.746;8.246;2024-01-30T11:47:56;38.70;;;17.73;;
82835;SDS011;72587;50.746;8.246;2024-01-30T11:50:22;33.57;;;17.60;;
82835;SDS011;72587;50.746;8.246;2024-01-30T11:52:48;35.87;;;17.93;;
82835;SDS011;72587;50.746;8.246;2024-01-30T11:55:14;32.07;;;15.50;;
82835;SDS011;72587;50.746;8.246;2024-01-30T11:57:41;31.77;;;17.50;;
82835;SDS011;72587;50.746;8.246;2024-01-30T12:00:13;35.00;;;17.47;;
82835;SDS011;72587;50.746;8.246;2024-01-30T12:02:40;29.73;;;16.40;;
82835;SDS011;72587;50.746;8.246;2024-01-30T12:05:06;36.30;;;15.77;;
82835;SDS011;72587;50.746;8.246;2024-01-30T12:07:33;34.73;;;16.67;;
82835;SDS011;72587;50.746;8.246;2024-01-30T12:09:59;35.00;;;17.27;;
82835;SDS011;72587;50.746;8.246;2024-01-30T12:12:25;37.73;;;20.47;;
82835;SDS011;72587;50.746;8.246;2024-01-30T12:14:51;38.47;;;20.63;;
82835;SDS011;72587;50.746;8.246;2024-01-30T12:17:51;31.77;;;17.00;;
82835;SDS011;72587;50.746;8.246;2024-01-30T12:25:04;28.67;;;15.17;;
82835;SDS011;72587;50.746;8.246;2024-01-30T12:27:30;33.30;;;16.00;;
82835;SDS011;72587;50.746;8.246;2024-01-30T12:29:56;28.40;;;14.87;;
82835;SDS011;72587;50.746;8.246;2024-01-30T12:32:23;31.93;;;15.37;;
82835;SDS011;72587;50.746;8.246;2024-01-30T12:34:49;27.50;;;14.70;;
82835;SDS011;72587;50.746;8.246;2024-01-30T12:37:15;29.20;;;14.33;;
82835;SDS011;72587;50.746;8.246;2024-01-30T12:39:47;35.83;;;15.80;;
82835;SDS011;72587;50.746;8.246;2024-01-30T12:42:13;29.43;;;15.33;;
82835;SDS011;72587;50.746;8.246;2024-01-30T12:44:39;30.45;;;15.73;;
82835;SDS011;72587;50.746;8.246;2024-01-30T12:47:08;31.13;;;14.37;;
82835;SDS011;72587;50.746;8.246;2024-01-30T12:49:34;30.10;;;15.90;;
82835;SDS011;72587;50.746;8.246;2024-01-30T12:52:00;32.33;;;16.37;;
82835;SDS011;72587;50.746;8.246;2024-01-30T12:54:26;32.63;;;15.87;;
82835;SDS011;72587;50.746;8.246;2024-01-30T12:56:51;30.83;;;15.73;;
82835;SDS011;72587;50.746;8.246;2024-01-30T12:59:17;31.13;;;16.10;;
82835;SDS011;72587;50.746;8.246;2024-01-30T13:01:43;31.77;;;16.13;;
82835;SDS011;72587;50.746;8.246;2024-01-30T13:04:08;38.67;;;17.63;;
82835;SDS011;72587;50.746;8.246;2024-01-30T13:06:34;37.03;;;16.87;;
82835;SDS011;72587;50.746;8.246;2024-01-30T13:09:00;31.47;;;15.23;;
82835;SDS011;72587;50.746;8.246;2024-01-30T13:11:25;29.87;;;15.43;;
82835;SDS011;72587;50.746;8.246;2024-01-30T13:13:51;34.73;;;16.37;;
82835;SDS011;72587;50.746;8.246;2024-01-30T13:16:16;41.37;;;16.70;;
82835;SDS011;72587;50.746;8.246;2024-01-30T13:18:43;36.00;;;16.20;;
82835;SDS011;72587;50.746;8.246;2024-01-30T13:21:09;28.73;;;15.63;;
82835;SDS011;72587;50.746;8.246;2024-01-30T13:23:34;30.33;;;14.97;;
82835;SDS011;72587;50.746;8.246;2024-01-30T13:26:00;32.10;;;15.30;;
82835;SDS011;72587;50.746;8.246;2024-01-30T13:28:26;25.67;;;14.07;;
82835;SDS011;72587;50.746;8.246;2024-01-30T13:30:51;40.13;;;16.13;;
82835;SDS011;72587;50.746;8.246;2024-01-30T13:33:17;30.30;;;14.30;;
82835;SDS011;72587;50.746;8.246;2024-01-30T13:35:43;36.53;;;15.73;;
82835;SDS011;72587;50.746;8.246;2024-01-30T13:38:08;44.40;;;16.10;;
82835;SDS011;72587;50.746;8.246;2024-01-30T13:40:34;29.40;;;15.30;;
82835;SDS011;72587;50.746;8.246;2024-01-30T13:43:00;31.40;;;14.90;;
82835;SDS011;72587;50.746;8.246;2024-01-30T13:45:25;30.07;;;14.73;;
82835;SDS011;72587;50.746;8.246;2024-01-30T13:47:51;37.07;;;15.83;;
82835;SDS011;72587;50.746;8.246;2024-01-30T13:50:16;29.03;;;14.43;;
82835;SDS011;72587;50.746;8.246;2024-01-30T13:52:42;28.17;;;14.27;;
82835;SDS011;72587;50.746;8.246;2024-01-30T13:55:08;29.07;;;15.33;;
82835;SDS011;72587;50.746;8.246;2024-01-30T13:57:35;29.63;;;14.97;;
82835;SDS011;72587;50.746;8.246;2024-01-30T14:00:02;25.20;;;13.73;;
82835;SDS011;72587;50.746;8.246;2024-01-30T14:02:34;27.73;;;14.70;;
82835;SDS011;72587;50.746;8.246;2024-01-30T14:04:59;36.03;;;15.07;;
82835;SDS011;72587;50.746;8.246;2024-01-30T14:07:25;29.07;;;16.17;;
82835;SDS011;72587;50.746;8.246;2024-01-30T14:09:51;28.63;;;15.03;;
82835;SDS011;72587;50.746;8.246;2024-01-30T14:12:16;28.17;;;15.17;;
82835;SDS011;72587;50.746;8.246;2024-01-30T14:14:42;28.73;;;14.70;;
82835;SDS011;72587;50.746;8.246;2024-01-30T14:17:07;30.53;;;14.70;;
82835;SDS011;72587;50.746;8.246;2024-01-30T14:19:34;31.33;;;15.67;;
82835;SDS011;72587;50.746;8.246;2024-01-30T14:22:00;28.97;;;15.40;;